sensor_id;sensor_type;location;lat;lon;timestamp;temperature;humidity
71754;DHT22;59593;51.716;7.016;2022-07-10T00:02:10;14.90;94.60
71754;DHT22;59593;51.716;7.016;2022-07-10T00:04:36;15.00;94.70
71754;DHT22;59593;51.716;7.016;2022-07-10T00:07:01;15.00;94.60
71754;DHT22;59593;51.716;7.016;2022-07-10T00:09:28;14.90;95.00
71754;DHT22;59593;51.716;7.016;2022-07-10T00:11:54;14.90;94.70
71754;DHT22;59593;51.716;7.016;2022-07-10T00:14:19;15.00;94.40
71754;DHT22;59593;51.716;7.016;2022-07-10T00:16:46;15.10;94.50
71754;DHT22;59593;51.716;7.016;2022-07-10T00:19:11;15.00;94.40
71754;DHT22;59593;51.716;7.016;2022-07-10T00:21:38;14.90;94.90
71754;DHT22;59593;51.716;7.016;2022-07-10T00:24:04;14.80;94.90
71754;DHT22;59593;51.716;7.016;2022-07-10T00:26:30;14.80;94.90
71754;DHT22;59593;51.716;7.016;2022-07-10T00:28:56;14.80;95.40
71754;DHT22;59593;51.716;7.016;2022-07-10T00:31:21;14.70;95.60
71754;DHT22;59593;51.716;7.016;2022-07-10T00:33:47;14.70;95.30
71754;DHT22;59593;51.716;7.016;2022-07-10T00:36:16;14.70;95.30
71754;DHT22;59593;51.716;7.016;2022-07-10T00:38:42;15.00;94.90
71754;DHT22;59593;51.716;7.016;2022-07-10T00:41:07;14.80;95.10
71754;DHT22;59593;51.716;7.016;2022-07-10T00:43:56;14.80;95.20
71754;DHT22;59593;51.716;7.016;2022-07-10T00:46:23;14.70;95.60
71754;DHT22;59593;51.716;7.016;2022-07-10T00:48:49;14.80;95.80
71754;DHT22;59593;51.716;7.016;2022-07-10T00:51:17;14.90;95.40
71754;DHT22;59593;51.716;7.016;2022-07-10T00:53:44;14.70;95.60
71754;DHT22;59593;51.716;7.016;2022-07-10T00:56:11;14.80;95.60
71754;DHT22;59593;51.716;7.016;2022-07-10T00:58:37;14.80;95.70
71754;DHT22;59593;51.716;7.016;2022-07-10T01:01:05;14.70;95.90
71754;DHT22;59593;51.716;7.016;2022-07-10T01:03:31;14.70;95.90
71754;DHT22;59593;51.716;7.016;2022-07-10T01:05:57;14.60;95.90
71754;DHT22;59593;51.716;7.016;2022-07-10T01:08:24;14.60;96.10
71754;DHT22;59593;51.716;7.016;2022-07-10T01:10:50;14.70;95.90
71754;DHT22;59593;51.716;7.016;2022-07-10T01:13:16;14.70;95.90
71754;DHT22;59593;51.716;7.016;2022-07-10T01:15:42;14.80;96.00
71754;DHT22;59593;51.716;7.016;2022-07-10T01:18:08;14.80;95.60
71754;DHT22;59593;51.716;7.016;2022-07-10T01:20:34;14.80;95.70
71754;DHT22;59593;51.716;7.016;2022-07-10T01:23:00;14.70;96.00
71754;DHT22;59593;51.716;7.016;2022-07-10T01:25:27;14.70;95.90
71754;DHT22;59593;51.716;7.016;2022-07-10T01:27:53;14.50;96.80
71754;DHT22;59593;51.716;7.016;2022-07-10T01:30:19;14.50;96.80
71754;DHT22;59593;51.716;7.016;2022-07-10T01:32:46;14.40;97.10
71754;DHT22;59593;51.716;7.016;2022-07-10T01:35:13;14.40;97.00
71754;DHT22;59593;51.716;7.016;2022-07-10T01:37:39;14.50;96.70
71754;DHT22;59593;51.716;7.016;2022-07-10T01:40:06;14.60;96.80
71754;DHT22;59593;51.716;7.016;2022-07-10T01:42:32;14.60;96.40
71754;DHT22;59593;51.716;7.016;2022-07-10T01:44:57;14.70;96.40
71754;DHT22;59593;51.716;7.016;2022-07-10T01:47:23;14.70;96.20
71754;DHT22;59593;51.716;7.016;2022-07-10T01:49:51;14.70;96.10
71754;DHT22;59593;51.716;7.016;2022-07-10T01:52:18;14.50;96.40
71754;DHT22;59593;51.716;7.016;2022-07-10T01:54:43;14.60;96.50
71754;DHT22;59593;51.716;7.016;2022-07-10T01:57:09;14.60;96.40
71754;DHT22;59593;51.716;7.016;2022-07-10T01:59:35;14.50;96.60
71754;DHT22;59593;51.716;7.016;2022-07-10T02:02:00;14.30;97.20
71754;DHT22;59593;51.716;7.016;2022-07-10T02:04:26;14.20;97.40
71754;DHT22;59593;51.716;7.016;2022-07-10T02:07:14;14.00;97.80
71754;DHT22;59593;51.716;7.016;2022-07-10T02:09:41;13.90;98.20
71754;DHT22;59593;51.716;7.016;2022-07-10T02:12:09;14.00;98.00
71754;DHT22;59593;51.716;7.016;2022-07-10T02:14:35;14.10;97.60
71754;DHT22;59593;51.716;7.016;2022-07-10T02:17:01;14.10;97.80
71754;DHT22;59593;51.716;7.016;2022-07-10T02:19:27;14.00;98.10
71754;DHT22;59593;51.716;7.016;2022-07-10T02:21:53;13.90;98.00
71754;DHT22;59593;51.716;7.016;2022-07-10T02:24:18;13.90;98.30
71754;DHT22;59593;51.716;7.016;2022-07-10T02:26:44;14.10;98.00
71754;DHT22;59593;51.716;7.016;2022-07-10T02:29:10;14.20;97.60
71754;DHT22;59593;51.716;7.016;2022-07-10T02:31:36;14.20;97.50
71754;DHT22;59593;51.716;7.016;2022-07-10T02:34:06;14.20;97.50
71754;DHT22;59593;51.716;7.016;2022-07-10T02:36:32;14.20;97.60
71754;DHT22;59593;51.716;7.016;2022-07-10T02:38:58;14.20;97.80
71754;DHT22;59593;51.716;7.016;2022-07-10T02:41:24;14.20;97.90
71754;DHT22;59593;51.716;7.016;2022-07-10T02:43:50;14.20;97.80
71754;DHT22;59593;51.716;7.016;2022-07-10T02:46:16;14.10;97.80
71754;DHT22;59593;51.716;7.016;2022-07-10T02:48:42;14.20;97.70
71754;DHT22;59593;51.716;7.016;2022-07-10T02:51:07;14.30;97.50
71754;DHT22;59593;51.716;7.016;2022-07-10T02:53:33;14.20;97.60
71754;DHT22;59593;51.716;7.016;2022-07-10T02:55:58;14.00;97.90
71754;DHT22;59593;51.716;7.016;2022-07-10T02:58:24;14.00;98.00
71754;DHT22;59593;51.716;7.016;2022-07-10T03:00:51;14.00;98.10
71754;DHT22;59593;51.716;7.016;2022-07-10T03:03:16;14.00;98.10
71754;DHT22;59593;51.716;7.016;2022-07-10T03:05:43;14.00;98.00
71754;DHT22;59593;51.716;7.016;2022-07-10T03:08:10;13.90;98.20
71754;DHT22;59593;51.716;7.016;2022-07-10T03:10:35;13.90;98.50
71754;DHT22;59593;51.716;7.016;2022-07-10T03:13:01;13.70;98.50
71754;DHT22;59593;51.716;7.016;2022-07-10T03:15:27;13.80;98.80
71754;DHT22;59593;51.716;7.016;2022-07-10T03:17:52;13.80;98.70
71754;DHT22;59593;51.716;7.016;2022-07-10T03:20:18;13.80;98.70
71754;DHT22;59593;51.716;7.016;2022-07-10T03:22:44;13.70;99.00
71754;DHT22;59593;51.716;7.016;2022-07-10T03:25:10;13.60;99.30
71754;DHT22;59593;51.716;7.016;2022-07-10T03:27:36;13.50;99.40
71754;DHT22;59593;51.716;7.016;2022-07-10T03:30:03;13.60;99.40
71754;DHT22;59593;51.716;7.016;2022-07-10T03:32:28;13.50;98.90
71754;DHT22;59593;51.716;7.016;2022-07-10T03:34:54;13.50;99.50
71754;DHT22;59593;51.716;7.016;2022-07-10T03:37:20;13.40;99.40
71754;DHT22;59593;51.716;7.016;2022-07-10T03:39:45;13.40;99.60
71754;DHT22;59593;51.716;7.016;2022-07-10T03:42:11;13.30;99.90
71754;DHT22;59593;51.716;7.016;2022-07-10T03:44:36;13.20;99.90
71754;DHT22;59593;51.716;7.016;2022-07-10T03:47:02;13.20;99.90
71754;DHT22;59593;51.716;7.016;2022-07-10T03:49:28;13.20;99.70
71754;DHT22;59593;51.716;7.016;2022-07-10T03:51:54;13.20;99.80
71754;DHT22;59593;51.716;7.016;2022-07-10T03:54:19;13.20;99.90
71754;DHT22;59593;51.716;7.016;2022-07-10T03:56:45;13.10;99.90
71754;DHT22;59593;51.716;7.016;2022-07-10T03:59:29;13.10;99.90
71754;DHT22;59593;51.716;7.016;2022-07-10T04:01:55;13.10;99.90
71754;DHT22;59593;51.716;7.016;2022-07-10T04:04:20;13.10;99.90
71754;DHT22;59593;51.716;7.016;2022-07-10T04:06:46;13.10;99.90
71754;DHT22;59593;51.716;7.016;2022-07-10T04:09:11;13.00;99.90
71754;DHT22;59593;51.716;7.016;2022-07-10T04:11:37;13.00;99.90
71754;DHT22;59593;51.716;7.016;2022-07-10T04:14:03;13.20;99.90
71754;DHT22;59593;51.716;7.016;2022-07-10T04:16:28;13.10;99.90
71754;DHT22;59593;51.716;7.016;2022-07-10T04:18:54;13.10;99.90
71754;DHT22;59593;51.716;7.016;2022-07-10T04:21:20;13.10;99.90
71754;DHT22;59593;51.716;7.016;2022-07-10T04:23:45;13.20;99.90
71754;DHT22;59593;51.716;7.016;2022-07-10T04:26:11;13.40;99.70
71754;DHT22;59593;51.716;7.016;2022-07-10T04:28:36;13.50;99.50
71754;DHT22;59593;51.716;7.016;2022-07-10T04:31:02;13.50;99.40
71754;DHT22;59593;51.716;7.016;2022-07-10T04:33:27;13.40;99.40
71754;DHT22;59593;51.716;7.016;2022-07-10T04:35:53;13.30;99.70
71754;DHT22;59593;51.716;7.016;2022-07-10T04:38:19;13.40;99.80
71754;DHT22;59593;51.716;7.016;2022-07-10T04:40:44;13.30;99.90
71754;DHT22;59593;51.716;7.016;2022-07-10T04:43:10;13.40;99.70
71754;DHT22;59593;51.716;7.016;2022-07-10T04:45:36;13.60;99.40
71754;DHT22;59593;51.716;7.016;2022-07-10T04:48:04;13.60;99.50
71754;DHT22;59593;51.716;7.016;2022-07-10T04:50:30;13.50;99.70
71754;DHT22;59593;51.716;7.016;2022-07-10T04:52:56;13.40;99.80
71754;DHT22;59593;51.716;7.016;2022-07-10T04:55:22;13.50;99.80
71754;DHT22;59593;51.716;7.016;2022-07-10T04:57:48;13.60;99.40
71754;DHT22;59593;51.716;7.016;2022-07-10T05:00:14;13.70;99.40
71754;DHT22;59593;51.716;7.016;2022-07-10T05:02:40;13.80;99.20
71754;DHT22;59593;51.716;7.016;2022-07-10T05:05:05;14.00;99.10
71754;DHT22;59593;51.716;7.016;2022-07-10T05:07:31;13.90;99.10
71754;DHT22;59593;51.716;7.016;2022-07-10T05:09:57;14.00;99.00
71754;DHT22;59593;51.716;7.016;2022-07-10T05:12:22;14.20;98.70
71754;DHT22;59593;51.716;7.016;2022-07-10T05:14:48;14.00;98.90
71754;DHT22;59593;51.716;7.016;2022-07-10T05:17:13;14.20;98.50
71754;DHT22;59593;51.716;7.016;2022-07-10T05:19:39;14.30;98.50
71754;DHT22;59593;51.716;7.016;2022-07-10T05:22:05;14.20;98.70
71754;DHT22;59593;51.716;7.016;2022-07-10T05:24:30;14.40;98.50
71754;DHT22;59593;51.716;7.016;2022-07-10T05:26:56;14.50;98.30
71754;DHT22;59593;51.716;7.016;2022-07-10T05:29:22;14.70;97.80
71754;DHT22;59593;51.716;7.016;2022-07-10T05:31:47;14.80;98.00
71754;DHT22;59593;51.716;7.016;2022-07-10T05:34:13;15.10;97.30
71754;DHT22;59593;51.716;7.016;2022-07-10T05:36:38;15.10;97.30
71754;DHT22;59593;51.716;7.016;2022-07-10T05:39:04;15.30;96.80
71754;DHT22;59593;51.716;7.016;2022-07-10T05:41:29;15.30;96.70
71754;DHT22;59593;51.716;7.016;2022-07-10T05:43:58;15.40;96.50
71754;DHT22;59593;51.716;7.016;2022-07-10T05:46:24;15.50;96.50
71754;DHT22;59593;51.716;7.016;2022-07-10T05:48:49;15.40;96.40
71754;DHT22;59593;51.716;7.016;2022-07-10T05:51:15;15.50;96.70
71754;DHT22;59593;51.716;7.016;2022-07-10T05:53:40;15.30;96.40
71754;DHT22;59593;51.716;7.016;2022-07-10T05:56:06;15.10;96.90
71754;DHT22;59593;51.716;7.016;2022-07-10T05:58:32;15.20;97.00
71754;DHT22;59593;51.716;7.016;2022-07-10T06:00:57;15.10;97.20
71754;DHT22;59593;51.716;7.016;2022-07-10T06:03:23;15.20;97.10
71754;DHT22;59593;51.716;7.016;2022-07-10T06:05:49;15.00;97.20
71754;DHT22;59593;51.716;7.016;2022-07-10T06:08:15;15.00;97.20
71754;DHT22;59593;51.716;7.016;2022-07-10T06:10:41;15.00;97.30
71754;DHT22;59593;51.716;7.016;2022-07-10T06:13:12;14.90;97.50
71754;DHT22;59593;51.716;7.016;2022-07-10T06:15:38;15.00;97.20
71754;DHT22;59593;51.716;7.016;2022-07-10T06:18:04;15.20;96.90
71754;DHT22;59593;51.716;7.016;2022-07-10T06:20:30;15.20;97.00
71754;DHT22;59593;51.716;7.016;2022-07-10T06:22:56;15.20;96.80
71754;DHT22;59593;51.716;7.016;2022-07-10T06:25:22;15.30;96.60
71754;DHT22;59593;51.716;7.016;2022-07-10T06:27:48;15.20;96.80
71754;DHT22;59593;51.716;7.016;2022-07-10T06:30:13;15.20;96.80
71754;DHT22;59593;51.716;7.016;2022-07-10T06:32:40;15.10;97.10
71754;DHT22;59593;51.716;7.016;2022-07-10T06:35:05;15.20;97.30
71754;DHT22;59593;51.716;7.016;2022-07-10T06:37:33;15.30;96.50
71754;DHT22;59593;51.716;7.016;2022-07-10T06:39:59;15.30;96.80
71754;DHT22;59593;51.716;7.016;2022-07-10T06:42:24;15.30;96.70
71754;DHT22;59593;51.716;7.016;2022-07-10T06:44:50;15.30;96.80
71754;DHT22;59593;51.716;7.016;2022-07-10T06:47:17;15.30;96.50
71754;DHT22;59593;51.716;7.016;2022-07-10T06:50:03;15.40;96.40
71754;DHT22;59593;51.716;7.016;2022-07-10T06:52:32;15.40;96.40
71754;DHT22;59593;51.716;7.016;2022-07-10T06:54:58;15.40;96.50
71754;DHT22;59593;51.716;7.016;2022-07-10T06:57:24;15.30;96.70
71754;DHT22;59593;51.716;7.016;2022-07-10T06:59:50;15.50;96.30
71754;DHT22;59593;51.716;7.016;2022-07-10T07:02:16;15.10;96.80
71754;DHT22;59593;51.716;7.016;2022-07-10T07:04:42;15.30;96.60
71754;DHT22;59593;51.716;7.016;2022-07-10T07:07:10;15.30;96.60
71754;DHT22;59593;51.716;7.016;2022-07-10T07:09:35;15.20;97.00
71754;DHT22;59593;51.716;7.016;2022-07-10T07:12:01;15.10;96.90
71754;DHT22;59593;51.716;7.016;2022-07-10T07:14:27;15.30;96.70
71754;DHT22;59593;51.716;7.016;2022-07-10T07:16:52;15.20;96.90
71754;DHT22;59593;51.716;7.016;2022-07-10T07:19:30;14.90;97.30
71754;DHT22;59593;51.716;7.016;2022-07-10T07:22:21;15.10;97.10
71754;DHT22;59593;51.716;7.016;2022-07-10T07:25:08;15.20;97.20
71754;DHT22;59593;51.716;7.016;2022-07-10T07:27:38;15.20;97.40
71754;DHT22;59593;51.716;7.016;2022-07-10T07:30:12;15.40;97.20
71754;DHT22;59593;51.716;7.016;2022-07-10T07:32:41;15.30;97.30
71754;DHT22;59593;51.716;7.016;2022-07-10T07:35:07;15.30;97.40
71754;DHT22;59593;51.716;7.016;2022-07-10T07:37:44;15.20;97.90
71754;DHT22;59593;51.716;7.016;2022-07-10T07:40:12;15.30;97.90
71754;DHT22;59593;51.716;7.016;2022-07-10T07:42:38;15.30;97.50
71754;DHT22;59593;51.716;7.016;2022-07-10T07:45:05;15.30;97.60
71754;DHT22;59593;51.716;7.016;2022-07-10T07:47:31;15.20;97.90
71754;DHT22;59593;51.716;7.016;2022-07-10T07:50:07;15.30;97.70
71754;DHT22;59593;51.716;7.016;2022-07-10T07:52:33;15.30;97.80
71754;DHT22;59593;51.716;7.016;2022-07-10T07:55:01;15.30;97.60
71754;DHT22;59593;51.716;7.016;2022-07-10T07:57:26;15.10;97.90
71754;DHT22;59593;51.716;7.016;2022-07-10T07:59:52;15.10;98.10
71754;DHT22;59593;51.716;7.016;2022-07-10T08:02:17;15.40;97.80
71754;DHT22;59593;51.716;7.016;2022-07-10T08:04:43;15.40;98.00
71754;DHT22;59593;51.716;7.016;2022-07-10T08:07:09;15.40;98.00
71754;DHT22;59593;51.716;7.016;2022-07-10T08:09:34;15.60;97.90
71754;DHT22;59593;51.716;7.016;2022-07-10T08:12:00;15.60;98.10
71754;DHT22;59593;51.716;7.016;2022-07-10T08:14:26;15.50;98.60
71754;DHT22;59593;51.716;7.016;2022-07-10T08:16:52;15.40;99.10
71754;DHT22;59593;51.716;7.016;2022-07-10T08:19:17;15.30;99.20
71754;DHT22;59593;51.716;7.016;2022-07-10T08:21:43;15.30;99.40
71754;DHT22;59593;51.716;7.016;2022-07-10T08:24:09;15.30;99.90
71754;DHT22;59593;51.716;7.016;2022-07-10T08:26:34;15.30;99.90
71754;DHT22;59593;51.716;7.016;2022-07-10T08:29:00;15.10;99.90
71754;DHT22;59593;51.716;7.016;2022-07-10T08:31:26;15.20;99.90
71754;DHT22;59593;51.716;7.016;2022-07-10T08:33:51;15.10;99.90
71754;DHT22;59593;51.716;7.016;2022-07-10T08:36:18;15.00;99.90
71754;DHT22;59593;51.716;7.016;2022-07-10T08:38:43;14.90;99.90
71754;DHT22;59593;51.716;7.016;2022-07-10T08:41:11;14.80;99.90
71754;DHT22;59593;51.716;7.016;2022-07-10T08:43:38;14.90;99.90
71754;DHT22;59593;51.716;7.016;2022-07-10T08:46:05;15.00;99.90
71754;DHT22;59593;51.716;7.016;2022-07-10T08:48:32;15.10;99.90
71754;DHT22;59593;51.716;7.016;2022-07-10T08:51:01;15.20;99.90
71754;DHT22;59593;51.716;7.016;2022-07-10T08:53:30;15.30;99.90
71754;DHT22;59593;51.716;7.016;2022-07-10T08:55:59;15.20;99.90
71754;DHT22;59593;51.716;7.016;2022-07-10T08:58:30;15.30;99.90
71754;DHT22;59593;51.716;7.016;2022-07-10T09:00:58;15.20;99.90
71754;DHT22;59593;51.716;7.016;2022-07-10T09:03:23;15.10;99.90
71754;DHT22;59593;51.716;7.016;2022-07-10T09:05:49;15.10;99.90
71754;DHT22;59593;51.716;7.016;2022-07-10T09:08:25;15.10;99.90
71754;DHT22;59593;51.716;7.016;2022-07-10T09:11:17;15.10;99.90
71754;DHT22;59593;51.716;7.016;2022-07-10T09:13:50;15.20;99.90
71754;DHT22;59593;51.716;7.016;2022-07-10T09:16:24;15.10;99.90
71754;DHT22;59593;51.716;7.016;2022-07-10T09:18:50;15.20;99.90
71754;DHT22;59593;51.716;7.016;2022-07-10T09:21:16;15.30;99.90
71754;DHT22;59593;51.716;7.016;2022-07-10T09:23:41;15.30;99.90
71754;DHT22;59593;51.716;7.016;2022-07-10T09:26:07;15.40;99.90
71754;DHT22;59593;51.716;7.016;2022-07-10T09:28:32;15.50;99.90
71754;DHT22;59593;51.716;7.016;2022-07-10T09:30:58;15.60;99.90
71754;DHT22;59593;51.716;7.016;2022-07-10T09:33:28;15.60;99.90
71754;DHT22;59593;51.716;7.016;2022-07-10T09:38:48;15.50;99.90
71754;DHT22;59593;51.716;7.016;2022-07-10T09:41:26;15.50;99.90
71754;DHT22;59593;51.716;7.016;2022-07-10T09:44:03;15.60;99.90
71754;DHT22;59593;51.716;7.016;2022-07-10T09:46:37;15.70;99.90
71754;DHT22;59593;51.716;7.016;2022-07-10T09:49:13;15.80;99.90
71754;DHT22;59593;51.716;7.016;2022-07-10T09:51:40;15.90;99.90
71754;DHT22;59593;51.716;7.016;2022-07-10T09:54:07;15.90;99.90
71754;DHT22;59593;51.716;7.016;2022-07-10T09:56:47;15.90;99.90
71754;DHT22;59593;51.716;7.016;2022-07-10T09:59:18;16.00;99.90
71754;DHT22;59593;51.716;7.016;2022-07-10T10:01:48;15.90;99.90
71754;DHT22;59593;51.716;7.016;2022-07-10T10:04:16;15.90;99.90
71754;DHT22;59593;51.716;7.016;2022-07-10T10:06:43;16.00;99.90
71754;DHT22;59593;51.716;7.016;2022-07-10T10:09:21;15.90;99.90
71754;DHT22;59593;51.716;7.016;2022-07-10T10:11:49;15.70;99.90
71754;DHT22;59593;51.716;7.016;2022-07-10T10:14:18;15.60;99.90
71754;DHT22;59593;51.716;7.016;2022-07-10T10:16:46;15.80;99.90
71754;DHT22;59593;51.716;7.016;2022-07-10T10:19:14;15.80;99.90
71754;DHT22;59593;51.716;7.016;2022-07-10T10:21:59;15.80;99.90
71754;DHT22;59593;51.716;7.016;2022-07-10T10:24:26;15.80;99.90
71754;DHT22;59593;51.716;7.016;2022-07-10T10:26:52;15.80;99.90
71754;DHT22;59593;51.716;7.016;2022-07-10T10:29:19;15.90;99.90
71754;DHT22;59593;51.716;7.016;2022-07-10T10:31:45;16.10;99.90
71754;DHT22;59593;51.716;7.016;2022-07-10T10:34:11;16.10;99.90
71754;DHT22;59593;51.716;7.016;2022-07-10T10:39:19;16.10;99.90
71754;DHT22;59593;51.716;7.016;2022-07-10T10:41:52;16.00;99.90
71754;DHT22;59593;51.716;7.016;2022-07-10T10:47:05;16.00;99.90
71754;DHT22;59593;51.716;7.016;2022-07-10T10:49:50;16.40;99.90
71754;DHT22;59593;51.716;7.016;2022-07-10T10:52:17;16.60;99.90
71754;DHT22;59593;51.716;7.016;2022-07-10T10:59:57;17.10;99.90
71754;DHT22;59593;51.716;7.016;2022-07-10T11:02:36;17.30;99.90
71754;DHT22;59593;51.716;7.016;2022-07-10T11:08:11;17.40;99.90
71754;DHT22;59593;51.716;7.016;2022-07-10T11:10:44;17.40;99.90
71754;DHT22;59593;51.716;7.016;2022-07-10T11:15:54;17.10;99.90
71754;DHT22;59593;51.716;7.016;2022-07-10T11:18:21;16.90;99.90
71754;DHT22;59593;51.716;7.016;2022-07-10T11:20:54;16.40;99.90
71754;DHT22;59593;51.716;7.016;2022-07-10T11:26:11;16.30;99.90
71754;DHT22;59593;51.716;7.016;2022-07-10T11:28:55;16.10;99.90
71754;DHT22;59593;51.716;7.016;2022-07-10T11:31:23;16.10;99.90
71754;DHT22;59593;51.716;7.016;2022-07-10T11:33:51;16.30;99.90
71754;DHT22;59593;51.716;7.016;2022-07-10T11:36:18;16.20;99.90
71754;DHT22;59593;51.716;7.016;2022-07-10T11:38:45;16.50;99.90
71754;DHT22;59593;51.716;7.016;2022-07-10T11:43:53;16.50;99.90
71754;DHT22;59593;51.716;7.016;2022-07-10T11:46:21;16.80;99.90
71754;DHT22;59593;51.716;7.016;2022-07-10T11:48:47;16.50;99.90
71754;DHT22;59593;51.716;7.016;2022-07-10T11:51:29;16.40;99.90
71754;DHT22;59593;51.716;7.016;2022-07-10T11:54:15;17.00;99.90
71754;DHT22;59593;51.716;7.016;2022-07-10T11:56:49;16.80;99.90
71754;DHT22;59593;51.716;7.016;2022-07-10T11:59:17;17.00;99.90
71754;DHT22;59593;51.716;7.016;2022-07-10T12:01:49;17.20;99.90
71754;DHT22;59593;51.716;7.016;2022-07-10T12:04:17;17.20;99.90
71754;DHT22;59593;51.716;7.016;2022-07-10T12:06:47;17.40;99.90
71754;DHT22;59593;51.716;7.016;2022-07-10T12:09:15;17.20;99.90
71754;DHT22;59593;51.716;7.016;2022-07-10T12:11:42;17.10;99.90
71754;DHT22;59593;51.716;7.016;2022-07-10T12:14:18;16.80;99.90
71754;DHT22;59593;51.716;7.016;2022-07-10T12:16:50;16.50;99.90
71754;DHT22;59593;51.716;7.016;2022-07-10T12:19:18;16.90;99.90
71754;DHT22;59593;51.716;7.016;2022-07-10T12:21:46;17.30;99.90
71754;DHT22;59593;51.716;7.016;2022-07-10T12:24:13;17.30;99.90
71754;DHT22;59593;51.716;7.016;2022-07-10T12:26:41;17.60;99.90
71754;DHT22;59593;51.716;7.016;2022-07-10T12:29:18;17.90;99.90
71754;DHT22;59593;51.716;7.016;2022-07-10T12:31:46;17.90;99.90
71754;DHT22;59593;51.716;7.016;2022-07-10T12:34:12;17.90;99.90
71754;DHT22;59593;51.716;7.016;2022-07-10T12:39:09;18.80;99.90
71754;DHT22;59593;51.716;7.016;2022-07-10T12:41:35;18.90;99.90
71754;DHT22;59593;51.716;7.016;2022-07-10T12:44:00;19.40;99.40
71754;DHT22;59593;51.716;7.016;2022-07-10T12:46:26;18.70;99.90
71754;DHT22;59593;51.716;7.016;2022-07-10T12:51:30;17.90;99.90
71754;DHT22;59593;51.716;7.016;2022-07-10T12:53:56;17.90;99.90
71754;DHT22;59593;51.716;7.016;2022-07-10T12:56:36;17.60;99.90
71754;DHT22;59593;51.716;7.016;2022-07-10T12:59:10;17.70;99.90
71754;DHT22;59593;51.716;7.016;2022-07-10T13:01:42;17.90;99.90
71754;DHT22;59593;51.716;7.016;2022-07-10T13:04:09;18.30;99.90
71754;DHT22;59593;51.716;7.016;2022-07-10T13:06:36;18.00;99.90
71754;DHT22;59593;51.716;7.016;2022-07-10T13:09:17;18.00;99.90
71754;DHT22;59593;51.716;7.016;2022-07-10T13:11:43;18.40;99.90
71754;DHT22;59593;51.716;7.016;2022-07-10T13:14:08;19.70;99.40
71754;DHT22;59593;51.716;7.016;2022-07-10T13:16:34;20.20;97.30
71754;DHT22;59593;51.716;7.016;2022-07-10T13:19:00;20.20;98.00
71754;DHT22;59593;51.716;7.016;2022-07-10T13:21:26;20.20;97.80
71754;DHT22;59593;51.716;7.016;2022-07-10T13:23:52;19.70;98.10
71754;DHT22;59593;51.716;7.016;2022-07-10T13:26:17;20.20;97.00
71754;DHT22;59593;51.716;7.016;2022-07-10T13:28:43;20.70;96.00
71754;DHT22;59593;51.716;7.016;2022-07-10T13:31:08;20.50;95.80
71754;DHT22;59593;51.716;7.016;2022-07-10T13:33:34;19.90;96.30
71754;DHT22;59593;51.716;7.016;2022-07-10T13:36:02;19.40;97.50
71754;DHT22;59593;51.716;7.016;2022-07-10T13:38:28;19.00;97.90
71754;DHT22;59593;51.716;7.016;2022-07-10T13:40:54;19.00;98.60
71754;DHT22;59593;51.716;7.016;2022-07-10T13:43:20;19.10;97.90
71754;DHT22;59593;51.716;7.016;2022-07-10T13:45:47;19.00;98.60
71754;DHT22;59593;51.716;7.016;2022-07-10T13:48:14;18.90;98.30
71754;DHT22;59593;51.716;7.016;2022-07-10T13:50:42;19.00;98.50
71754;DHT22;59593;51.716;7.016;2022-07-10T13:53:08;19.00;99.00
71754;DHT22;59593;51.716;7.016;2022-07-10T13:55:34;19.30;97.70
71754;DHT22;59593;51.716;7.016;2022-07-10T13:58:00;19.50;97.40
71754;DHT22;59593;51.716;7.016;2022-07-10T14:00:25;19.80;97.80
71754;DHT22;59593;51.716;7.016;2022-07-10T14:02:51;19.90;97.10
71754;DHT22;59593;51.716;7.016;2022-07-10T14:05:16;19.20;97.50
71754;DHT22;59593;51.716;7.016;2022-07-10T14:07:42;18.70;98.20
71754;DHT22;59593;51.716;7.016;2022-07-10T14:10:08;18.40;99.20
71754;DHT22;59593;51.716;7.016;2022-07-10T14:12:34;18.60;98.80
71754;DHT22;59593;51.716;7.016;2022-07-10T14:15:00;18.70;99.00
71754;DHT22;59593;51.716;7.016;2022-07-10T14:17:26;18.90;98.10
71754;DHT22;59593;51.716;7.016;2022-07-10T14:19:51;19.00;97.60
71754;DHT22;59593;51.716;7.016;2022-07-10T14:22:17;19.10;96.90
71754;DHT22;59593;51.716;7.016;2022-07-10T14:24:43;19.00;96.40
71754;DHT22;59593;51.716;7.016;2022-07-10T14:27:08;19.20;96.40
71754;DHT22;59593;51.716;7.016;2022-07-10T14:29:35;18.70;97.00
71754;DHT22;59593;51.716;7.016;2022-07-10T14:32:00;19.00;97.10
71754;DHT22;59593;51.716;7.016;2022-07-10T14:34:26;19.20;97.20
71754;DHT22;59593;51.716;7.016;2022-07-10T14:36:53;19.00;97.00
71754;DHT22;59593;51.716;7.016;2022-07-10T14:39:19;19.10;96.90
71754;DHT22;59593;51.716;7.016;2022-07-10T14:41:45;19.10;97.10
71754;DHT22;59593;51.716;7.016;2022-07-10T14:44:10;19.30;96.60
71754;DHT22;59593;51.716;7.016;2022-07-10T14:46:36;19.60;95.30
71754;DHT22;59593;51.716;7.016;2022-07-10T14:49:02;19.50;95.80
71754;DHT22;59593;51.716;7.016;2022-07-10T14:51:28;19.20;95.90
71754;DHT22;59593;51.716;7.016;2022-07-10T14:53:54;19.20;95.50
71754;DHT22;59593;51.716;7.016;2022-07-10T14:56:21;19.10;95.50
71754;DHT22;59593;51.716;7.016;2022-07-10T14:58:47;19.40;95.90
71754;DHT22;59593;51.716;7.016;2022-07-10T15:01:13;19.50;95.60
71754;DHT22;59593;51.716;7.016;2022-07-10T15:03:40;19.40;95.20
71754;DHT22;59593;51.716;7.016;2022-07-10T15:06:06;19.40;95.50
71754;DHT22;59593;51.716;7.016;2022-07-10T15:08:32;19.50;95.30
71754;DHT22;59593;51.716;7.016;2022-07-10T15:10:57;19.30;95.40
71754;DHT22;59593;51.716;7.016;2022-07-10T15:13:25;19.50;95.30
71754;DHT22;59593;51.716;7.016;2022-07-10T15:15:51;19.50;95.20
71754;DHT22;59593;51.716;7.016;2022-07-10T15:18:17;19.50;95.10
71754;DHT22;59593;51.716;7.016;2022-07-10T15:20:43;20.00;94.90
71754;DHT22;59593;51.716;7.016;2022-07-10T15:23:09;20.00;95.30
71754;DHT22;59593;51.716;7.016;2022-07-10T15:25:35;20.00;94.20
71754;DHT22;59593;51.716;7.016;2022-07-10T15:28:05;19.90;94.40
71754;DHT22;59593;51.716;7.016;2022-07-10T15:30:30;20.00;94.50
71754;DHT22;59593;51.716;7.016;2022-07-10T15:32:56;19.90;94.40
71754;DHT22;59593;51.716;7.016;2022-07-10T15:35:22;20.10;94.00
71754;DHT22;59593;51.716;7.016;2022-07-10T15:37:49;19.60;94.50
71754;DHT22;59593;51.716;7.016;2022-07-10T15:40:15;19.20;95.10
71754;DHT22;59593;51.716;7.016;2022-07-10T15:42:41;19.30;95.20
71754;DHT22;59593;51.716;7.016;2022-07-10T15:45:07;19.30;95.20
71754;DHT22;59593;51.716;7.016;2022-07-10T15:47:33;19.50;95.10
71754;DHT22;59593;51.716;7.016;2022-07-10T15:49:59;19.90;94.70
71754;DHT22;59593;51.716;7.016;2022-07-10T15:52:24;20.40;94.30
71754;DHT22;59593;51.716;7.016;2022-07-10T15:54:50;20.20;93.50
71754;DHT22;59593;51.716;7.016;2022-07-10T15:57:15;19.90;93.90
71754;DHT22;59593;51.716;7.016;2022-07-10T15:59:41;19.60;94.00
71754;DHT22;59593;51.716;7.016;2022-07-10T16:02:08;19.90;94.10